sensor_id;sensor_type;location;lat;lon;timestamp;temperature;humidity
1996;DHT22;38556;47.068;15.408;2023-07-02T00:01:59;21.00;96.00
1996;DHT22;38556;47.068;15.408;2023-07-02T00:04:26;21.00;96.30
1996;DHT22;38556;47.068;15.408;2023-07-02T00:06:55;21.00;96.30
1996;DHT22;38556;47.068;15.408;2023-07-02T00:09:22;21.00;96.40
1996;DHT22;38556;47.068;15.408;2023-07-02T00:11:50;20.90;95.70
1996;DHT22;38556;47.068;15.408;2023-07-02T00:14:17;21.00;95.70
1996;DHT22;38556;47.068;15.408;2023-07-02T00:16:45;21.00;95.50
1996;DHT22;38556;47.068;15.408;2023-07-02T00:19:13;21.00;95.90
1996;DHT22;38556;47.068;15.408;2023-07-02T00:21:41;21.00;95.90
1996;DHT22;38556;47.068;15.408;2023-07-02T00:24:10;21.00;96.00
1996;DHT22;38556;47.068;15.408;2023-07-02T00:26:38;21.00;95.90
1996;DHT22;38556;47.068;15.408;2023-07-02T00:29:06;21.00;95.90
1996;DHT22;38556;47.068;15.408;2023-07-02T00:31:35;21.00;96.10
1996;DHT22;38556;47.068;15.408;2023-07-02T00:34:02;21.00;96.10
1996;DHT22;38556;47.068;15.408;2023-07-02T00:36:30;20.90;96.20
1996;DHT22;38556;47.068;15.408;2023-07-02T00:38:58;20.80;96.50
1996;DHT22;38556;47.068;15.408;2023-07-02T00:41:27;20.90;96.60
1996;DHT22;38556;47.068;15.408;2023-07-02T00:43:54;20.70;96.30
1996;DHT22;38556;47.068;15.408;2023-07-02T00:46:23;20.70;96.20
1996;DHT22;38556;47.068;15.408;2023-07-02T00:48:52;20.70;96.50
1996;DHT22;38556;47.068;15.408;2023-07-02T00:51:21;20.70;96.50
1996;DHT22;38556;47.068;15.408;2023-07-02T00:53:50;20.80;96.60
1996;DHT22;38556;47.068;15.408;2023-07-02T00:56:17;20.70;96.40
1996;DHT22;38556;47.068;15.408;2023-07-02T00:58:47;20.70;96.70
1996;DHT22;38556;47.068;15.408;2023-07-02T01:01:17;20.60;96.70
1996;DHT22;38556;47.068;15.408;2023-07-02T01:03:53;20.50;96.70
1996;DHT22;38556;47.068;15.408;2023-07-02T01:06:23;20.60;96.60
1996;DHT22;38556;47.068;15.408;2023-07-02T01:08:55;20.60;96.80
1996;DHT22;38556;47.068;15.408;2023-07-02T01:11:25;20.60;96.70
1996;DHT22;38556;47.068;15.408;2023-07-02T01:13:59;20.50;96.90
1996;DHT22;38556;47.068;15.408;2023-07-02T01:16:29;20.60;96.50
1996;DHT22;38556;47.068;15.408;2023-07-02T01:19:00;20.60;96.50
1996;DHT22;38556;47.068;15.408;2023-07-02T01:21:30;20.40;96.40
1996;DHT22;38556;47.068;15.408;2023-07-02T01:23:57;20.40;96.50
1996;DHT22;38556;47.068;15.408;2023-07-02T01:26:29;20.50;96.60
1996;DHT22;38556;47.068;15.408;2023-07-02T01:28:56;20.50;96.60
1996;DHT22;38556;47.068;15.408;2023-07-02T01:31:23;20.50;96.90
1996;DHT22;38556;47.068;15.408;2023-07-02T01:33:51;20.30;96.30
1996;DHT22;38556;47.068;15.408;2023-07-02T01:36:18;20.30;96.60
1996;DHT22;38556;47.068;15.408;2023-07-02T01:38:47;20.40;96.80
1996;DHT22;38556;47.068;15.408;2023-07-02T01:41:14;20.30;96.90
1996;DHT22;38556;47.068;15.408;2023-07-02T01:43:41;20.40;96.80
1996;DHT22;38556;47.068;15.408;2023-07-02T01:46:09;20.40;96.70
1996;DHT22;38556;47.068;15.408;2023-07-02T01:48:36;20.40;97.00
1996;DHT22;38556;47.068;15.408;2023-07-02T01:51:03;20.40;96.20
1996;DHT22;38556;47.068;15.408;2023-07-02T01:53:30;20.40;96.40
1996;DHT22;38556;47.068;15.408;2023-07-02T01:55:59;20.50;95.60
1996;DHT22;38556;47.068;15.408;2023-07-02T01:58:26;20.50;95.80
1996;DHT22;38556;47.068;15.408;2023-07-02T02:00:53;20.40;95.50
1996;DHT22;38556;47.068;15.408;2023-07-02T02:03:22;20.40;95.10
1996;DHT22;38556;47.068;15.408;2023-07-02T02:05:49;20.30;94.90
1996;DHT22;38556;47.068;15.408;2023-07-02T02:08:16;20.00;96.20
1996;DHT22;38556;47.068;15.408;2023-07-02T02:10:44;19.70;97.20
1996;DHT22;38556;47.068;15.408;2023-07-02T02:13:12;19.50;97.90
1996;DHT22;38556;47.068;15.408;2023-07-02T02:18:07;19.20;98.80
1996;DHT22;38556;47.068;15.408;2023-07-02T02:20:34;19.00;99.90
1996;DHT22;38556;47.068;15.408;2023-07-02T02:23:03;19.00;99.90
1996;DHT22;38556;47.068;15.408;2023-07-02T02:25:30;19.10;99.90
1996;DHT22;38556;47.068;15.408;2023-07-02T02:27:57;19.20;99.90
1996;DHT22;38556;47.068;15.408;2023-07-02T02:30:26;19.30;99.90
1996;DHT22;38556;47.068;15.408;2023-07-02T02:32:52;19.20;99.90
1996;DHT22;38556;47.068;15.408;2023-07-02T02:35:20;19.30;99.90
1996;DHT22;38556;47.068;15.408;2023-07-02T02:37:48;19.30;99.80
1996;DHT22;38556;47.068;15.408;2023-07-02T02:40:16;19.40;99.80
1996;DHT22;38556;47.068;15.408;2023-07-02T02:42:43;19.50;99.90
1996;DHT22;38556;47.068;15.408;2023-07-02T02:45:10;19.50;99.90
1996;DHT22;38556;47.068;15.408;2023-07-02T02:47:39;19.50;99.90
1996;DHT22;38556;47.068;15.408;2023-07-02T02:50:07;19.50;99.90
1996;DHT22;38556;47.068;15.408;2023-07-02T02:52:36;19.50;99.90
1996;DHT22;38556;47.068;15.408;2023-07-02T02:55:06;19.60;99.90
1996;DHT22;38556;47.068;15.408;2023-07-02T02:57:33;19.60;99.60
1996;DHT22;38556;47.068;15.408;2023-07-02T03:00:01;19.60;99.90
1996;DHT22;38556;47.068;15.408;2023-07-02T03:02:28;19.60;99.90
1996;DHT22;38556;47.068;15.408;2023-07-02T03:04:57;19.60;99.90
1996;DHT22;38556;47.068;15.408;2023-07-02T03:07:28;19.60;99.80
1996;DHT22;38556;47.068;15.408;2023-07-02T03:09:55;19.70;99.90
1996;DHT22;38556;47.068;15.408;2023-07-02T03:12:22;19.60;99.90
1996;DHT22;38556;47.068;15.408;2023-07-02T03:14:50;19.60;99.70
1996;DHT22;38556;47.068;15.408;2023-07-02T03:17:20;19.50;99.60
1996;DHT22;38556;47.068;15.408;2023-07-02T03:19:48;19.60;99.80
1996;DHT22;38556;47.068;15.408;2023-07-02T03:22:16;19.60;99.90
1996;DHT22;38556;47.068;15.408;2023-07-02T03:24:44;19.60;99.90
1996;DHT22;38556;47.068;15.408;2023-07-02T03:27:11;19.60;99.80
1996;DHT22;38556;47.068;15.408;2023-07-02T03:29:38;19.60;99.90
1996;DHT22;38556;47.068;15.408;2023-07-02T03:32:06;19.60;99.90
1996;DHT22;38556;47.068;15.408;2023-07-02T03:34:34;19.60;99.90
1996;DHT22;38556;47.068;15.408;2023-07-02T03:37:01;19.60;99.80
1996;DHT22;38556;47.068;15.408;2023-07-02T03:39:30;19.50;99.90
1996;DHT22;38556;47.068;15.408;2023-07-02T03:41:57;19.50;99.90
1996;DHT22;38556;47.068;15.408;2023-07-02T03:44:24;19.60;99.90
1996;DHT22;38556;47.068;15.408;2023-07-02T03:46:51;19.60;99.90
1996;DHT22;38556;47.068;15.408;2023-07-02T03:49:19;19.60;99.90
1996;DHT22;38556;47.068;15.408;2023-07-02T03:51:46;19.40;99.90
1996;DHT22;38556;47.068;15.408;2023-07-02T03:54:14;19.40;99.90
1996;DHT22;38556;47.068;15.408;2023-07-02T03:56:42;19.50;99.90
1996;DHT22;38556;47.068;15.408;2023-07-02T03:59:10;19.50;99.90
1996;DHT22;38556;47.068;15.408;2023-07-02T04:01:37;19.60;99.90
1996;DHT22;38556;47.068;15.408;2023-07-02T04:04:04;19.60;99.90
1996;DHT22;38556;47.068;15.408;2023-07-02T04:06:32;19.70;99.90
1996;DHT22;38556;47.068;15.408;2023-07-02T04:09:00;19.70;99.90
1996;DHT22;38556;47.068;15.408;2023-07-02T04:11:28;19.80;99.90
1996;DHT22;38556;47.068;15.408;2023-07-02T04:13:57;19.80;99.90
1996;DHT22;38556;47.068;15.408;2023-07-02T04:16:24;19.80;99.90
1996;DHT22;38556;47.068;15.408;2023-07-02T04:18:52;19.70;99.90
1996;DHT22;38556;47.068;15.408;2023-07-02T04:21:19;19.80;99.90
1996;DHT22;38556;47.068;15.408;2023-07-02T04:23:47;19.80;99.90
1996;DHT22;38556;47.068;15.408;2023-07-02T04:26:14;19.80;99.90
1996;DHT22;38556;47.068;15.408;2023-07-02T04:28:41;19.80;99.90
1996;DHT22;38556;47.068;15.408;2023-07-02T04:31:10;19.80;99.90
1996;DHT22;38556;47.068;15.408;2023-07-02T04:33:38;19.60;99.90
1996;DHT22;38556;47.068;15.408;2023-07-02T04:36:05;19.20;99.90
1996;DHT22;38556;47.068;15.408;2023-07-02T04:38:33;19.30;99.90
1996;DHT22;38556;47.068;15.408;2023-07-02T04:41:00;19.40;99.90
1996;DHT22;38556;47.068;15.408;2023-07-02T04:43:31;19.50;99.90
1996;DHT22;38556;47.068;15.408;2023-07-02T04:45:59;19.60;99.90
1996;DHT22;38556;47.068;15.408;2023-07-02T04:48:28;19.60;99.90
1996;DHT22;38556;47.068;15.408;2023-07-02T04:50:55;19.60;99.90
1996;DHT22;38556;47.068;15.408;2023-07-02T04:53:23;19.80;99.90
1996;DHT22;38556;47.068;15.408;2023-07-02T04:55:50;19.80;99.90
1996;DHT22;38556;47.068;15.408;2023-07-02T04:58:17;19.80;99.90
1996;DHT22;38556;47.068;15.408;2023-07-02T05:00:45;19.90;99.90
1996;DHT22;38556;47.068;15.408;2023-07-02T05:03:12;19.90;99.90
1996;DHT22;38556;47.068;15.408;2023-07-02T05:05:41;19.90;99.90
1996;DHT22;38556;47.068;15.408;2023-07-02T05:08:08;19.90;99.90
1996;DHT22;38556;47.068;15.408;2023-07-02T05:10:36;19.90;99.90
1996;DHT22;38556;47.068;15.408;2023-07-02T05:13:03;19.90;99.90
1996;DHT22;38556;47.068;15.408;2023-07-02T05:15:30;19.90;99.90
1996;DHT22;38556;47.068;15.408;2023-07-02T05:17:58;20.00;99.90
1996;DHT22;38556;47.068;15.408;2023-07-02T05:20:25;20.10;99.90
1996;DHT22;38556;47.068;15.408;2023-07-02T05:22:54;20.20;99.90
1996;DHT22;38556;47.068;15.408;2023-07-02T05:25:21;20.20;99.90
1996;DHT22;38556;47.068;15.408;2023-07-02T05:27:49;20.20;99.90
1996;DHT22;38556;47.068;15.408;2023-07-02T05:30:16;20.30;99.90
1996;DHT22;38556;47.068;15.408;2023-07-02T05:32:43;20.30;99.90
1996;DHT22;38556;47.068;15.408;2023-07-02T05:35:10;20.30;99.90
1996;DHT22;38556;47.068;15.408;2023-07-02T05:37:37;20.40;99.90
1996;DHT22;38556;47.068;15.408;2023-07-02T05:40:07;20.40;99.90
1996;DHT22;38556;47.068;15.408;2023-07-02T05:42:35;20.40;99.90
1996;DHT22;38556;47.068;15.408;2023-07-02T05:45:04;20.40;99.90
1996;DHT22;38556;47.068;15.408;2023-07-02T05:47:31;20.10;99.90
1996;DHT22;38556;47.068;15.408;2023-07-02T05:49:59;20.00;99.90
1996;DHT22;38556;47.068;15.408;2023-07-02T05:52:26;20.20;99.90
1996;DHT22;38556;47.068;15.408;2023-07-02T05:54:53;20.50;99.90
1996;DHT22;38556;47.068;15.408;2023-07-02T05:57:22;20.60;99.90
1996;DHT22;38556;47.068;15.408;2023-07-02T05:59:49;20.70;99.90
1996;DHT22;38556;47.068;15.408;2023-07-02T06:02:16;20.80;99.90
1996;DHT22;38556;47.068;15.408;2023-07-02T06:04:43;20.80;99.90
1996;DHT22;38556;47.068;15.408;2023-07-02T06:07:11;20.90;99.90
1996;DHT22;38556;47.068;15.408;2023-07-02T06:09:38;21.00;99.90
1996;DHT22;38556;47.068;15.408;2023-07-02T06:12:05;21.00;99.90
1996;DHT22;38556;47.068;15.408;2023-07-02T06:14:34;21.10;99.90
1996;DHT22;38556;47.068;15.408;2023-07-02T06:17:02;21.20;99.90
1996;DHT22;38556;47.068;15.408;2023-07-02T06:19:32;21.20;99.90
1996;DHT22;38556;47.068;15.408;2023-07-02T06:21:59;21.20;99.90
1996;DHT22;38556;47.068;15.408;2023-07-02T06:24:26;21.30;99.90
1996;DHT22;38556;47.068;15.408;2023-07-02T06:26:53;21.40;99.90
1996;DHT22;38556;47.068;15.408;2023-07-02T06:29:22;21.40;99.90
1996;DHT22;38556;47.068;15.408;2023-07-02T06:31:50;21.40;99.90
1996;DHT22;38556;47.068;15.408;2023-07-02T06:34:18;21.50;99.90
1996;DHT22;38556;47.068;15.408;2023-07-02T06:36:45;21.50;99.90
1996;DHT22;38556;47.068;15.408;2023-07-02T06:39:13;21.50;99.90
1996;DHT22;38556;47.068;15.408;2023-07-02T06:41:40;21.60;99.90
1996;DHT22;38556;47.068;15.408;2023-07-02T06:44:08;21.60;99.90
1996;DHT22;38556;47.068;15.408;2023-07-02T06:46:35;21.90;99.90
1996;DHT22;38556;47.068;15.408;2023-07-02T06:49:04;22.10;99.90
1996;DHT22;38556;47.068;15.408;2023-07-02T06:51:31;22.20;99.90
1996;DHT22;38556;47.068;15.408;2023-07-02T06:54:00;22.40;99.90
1996;DHT22;38556;47.068;15.408;2023-07-02T06:56:28;22.60;99.90
1996;DHT22;38556;47.068;15.408;2023-07-02T06:58:55;22.70;99.90
1996;DHT22;38556;47.068;15.408;2023-07-02T07:01:23;22.80;99.90
1996;DHT22;38556;47.068;15.408;2023-07-02T07:03:50;23.00;99.90
1996;DHT22;38556;47.068;15.408;2023-07-02T07:06:19;23.10;99.90
1996;DHT22;38556;47.068;15.408;2023-07-02T07:08:47;23.20;99.90
1996;DHT22;38556;47.068;15.408;2023-07-02T07:11:14;23.40;99.90
1996;DHT22;38556;47.068;15.408;2023-07-02T07:13:42;23.70;99.90
1996;DHT22;38556;47.068;15.408;2023-07-02T07:16:10;23.90;99.60
1996;DHT22;38556;47.068;15.408;2023-07-02T07:18:38;23.90;97.00
1996;DHT22;38556;47.068;15.408;2023-07-02T07:21:05;23.90;96.70
1996;DHT22;38556;47.068;15.408;2023-07-02T07:23:34;24.00;96.40
1996;DHT22;38556;47.068;15.408;2023-07-02T07:26:01;24.20;95.80
1996;DHT22;38556;47.068;15.408;2023-07-02T07:28:29;24.20;96.00
1996;DHT22;38556;47.068;15.408;2023-07-02T07:30:56;24.30;96.30
1996;DHT22;38556;47.068;15.408;2023-07-02T07:33:24;24.50;96.00
1996;DHT22;38556;47.068;15.408;2023-07-02T07:35:51;24.50;96.30
1996;DHT22;38556;47.068;15.408;2023-07-02T07:38:19;24.60;96.00
1996;DHT22;38556;47.068;15.408;2023-07-02T07:40:47;24.60;96.20
1996;DHT22;38556;47.068;15.408;2023-07-02T07:43:15;24.60;95.60
1996;DHT22;38556;47.068;15.408;2023-07-02T07:45:42;24.70;95.00
1996;DHT22;38556;47.068;15.408;2023-07-02T07:48:10;24.70;95.00
1996;DHT22;38556;47.068;15.408;2023-07-02T07:50:37;24.70;93.60
1996;DHT22;38556;47.068;15.408;2023-07-02T07:53:05;24.80;93.90
1996;DHT22;38556;47.068;15.408;2023-07-02T07:55:32;24.80;93.40
1996;DHT22;38556;47.068;15.408;2023-07-02T07:58:02;24.80;93.00
1996;DHT22;38556;47.068;15.408;2023-07-02T08:00:29;24.80;92.20
1996;DHT22;38556;47.068;15.408;2023-07-02T08:02:56;24.70;91.90
1996;DHT22;38556;47.068;15.408;2023-07-02T08:05:25;24.70;92.10
1996;DHT22;38556;47.068;15.408;2023-07-02T08:07:53;24.70;92.10
1996;DHT22;38556;47.068;15.408;2023-07-02T08:10:20;24.60;92.50
1996;DHT22;38556;47.068;15.408;2023-07-02T08:12:48;24.60;93.00
1996;DHT22;38556;47.068;15.408;2023-07-02T08:15:17;24.60;92.90
1996;DHT22;38556;47.068;15.408;2023-07-02T08:17:45;24.30;92.60
1996;DHT22;38556;47.068;15.408;2023-07-02T08:20:12;24.30;93.10
1996;DHT22;38556;47.068;15.408;2023-07-02T08:22:40;23.50;92.80
1996;DHT22;38556;47.068;15.408;2023-07-02T08:25:08;23.30;93.00
1996;DHT22;38556;47.068;15.408;2023-07-02T08:27:36;23.40;92.90
1996;DHT22;38556;47.068;15.408;2023-07-02T08:30:04;23.30;93.10
1996;DHT22;38556;47.068;15.408;2023-07-02T08:32:34;23.60;93.20
1996;DHT22;38556;47.068;15.408;2023-07-02T08:35:01;23.60;93.50
1996;DHT22;38556;47.068;15.408;2023-07-02T08:37:28;23.90;92.90
1996;DHT22;38556;47.068;15.408;2023-07-02T08:39:55;24.00;92.90
1996;DHT22;38556;47.068;15.408;2023-07-02T08:42:23;24.00;92.60
1996;DHT22;38556;47.068;15.408;2023-07-02T08:44:56;23.70;91.30
1996;DHT22;38556;47.068;15.408;2023-07-02T08:47:24;23.80;91.00
1996;DHT22;38556;47.068;15.408;2023-07-02T08:49:53;23.70;91.90
1996;DHT22;38556;47.068;15.408;2023-07-02T08:52:20;23.80;92.00
1996;DHT22;38556;47.068;15.408;2023-07-02T08:54:48;23.80;92.30
1996;DHT22;38556;47.068;15.408;2023-07-02T08:57:16;23.70;92.10
1996;DHT22;38556;47.068;15.408;2023-07-02T08:59:43;23.90;92.50
1996;DHT22;38556;47.068;15.408;2023-07-02T09:02:11;24.10;93.00
1996;DHT22;38556;47.068;15.408;2023-07-02T09:04:38;24.40;92.90
1996;DHT22;38556;47.068;15.408;2023-07-02T09:07:08;24.50;92.60
1996;DHT22;38556;47.068;15.408;2023-07-02T09:09:44;24.40;92.90
1996;DHT22;38556;47.068;15.408;2023-07-02T09:12:22;24.50;93.20
1996;DHT22;38556;47.068;15.408;2023-07-02T09:14:55;24.60;92.60
1996;DHT22;38556;47.068;15.408;2023-07-02T09:17:27;24.50;92.00
1996;DHT22;38556;47.068;15.408;2023-07-02T09:19:57;24.40;92.70
1996;DHT22;38556;47.068;15.408;2023-07-02T09:22:28;24.40;92.70
1996;DHT22;38556;47.068;15.408;2023-07-02T09:24:57;24.30;92.80
1996;DHT22;38556;47.068;15.408;2023-07-02T09:27:33;24.40;92.80
1996;DHT22;38556;47.068;15.408;2023-07-02T09:30:06;24.50;93.00
1996;DHT22;38556;47.068;15.408;2023-07-02T09:32:34;24.70;93.40
1996;DHT22;38556;47.068;15.408;2023-07-02T09:35:01;24.80;92.80
1996;DHT22;38556;47.068;15.408;2023-07-02T09:37:32;25.00;92.80
1996;DHT22;38556;47.068;15.408;2023-07-02T09:40:00;25.10;92.70
1996;DHT22;38556;47.068;15.408;2023-07-02T09:42:31;24.80;91.90
1996;DHT22;38556;47.068;15.408;2023-07-02T09:45:02;25.00;92.00
1996;DHT22;38556;47.068;15.408;2023-07-02T09:47:30;24.90;91.30
1996;DHT22;38556;47.068;15.408;2023-07-02T09:50:02;25.00;92.20
1996;DHT22;38556;47.068;15.408;2023-07-02T09:52:34;25.10;91.90
1996;DHT22;38556;47.068;15.408;2023-07-02T09:55:03;25.20;91.30
1996;DHT22;38556;47.068;15.408;2023-07-02T09:57:30;25.20;91.30
1996;DHT22;38556;47.068;15.408;2023-07-02T09:59:59;25.20;91.60
1996;DHT22;38556;47.068;15.408;2023-07-02T10:02:26;25.30;91.30
1996;DHT22;38556;47.068;15.408;2023-07-02T10:04:54;25.30;90.10
1996;DHT22;38556;47.068;15.408;2023-07-02T10:07:29;25.30;90.30
1996;DHT22;38556;47.068;15.408;2023-07-02T10:09:59;25.30;91.00
1996;DHT22;38556;47.068;15.408;2023-07-02T10:12:28;25.40;90.40
1996;DHT22;38556;47.068;15.408;2023-07-02T10:14:57;25.40;90.30
1996;DHT22;38556;47.068;15.408;2023-07-02T10:17:28;25.30;90.30
1996;DHT22;38556;47.068;15.408;2023-07-02T10:19:57;25.30;90.90
1996;DHT22;38556;47.068;15.408;2023-07-02T10:22:25;25.40;91.00
1996;DHT22;38556;47.068;15.408;2023-07-02T10:24:54;25.50;90.70
1996;DHT22;38556;47.068;15.408;2023-07-02T10:27:35;25.60;89.50
1996;DHT22;38556;47.068;15.408;2023-07-02T10:30:03;25.50;90.20
1996;DHT22;38556;47.068;15.408;2023-07-02T10:32:32;25.40;89.80
1996;DHT22;38556;47.068;15.408;2023-07-02T10:35:00;25.50;89.40
1996;DHT22;38556;47.068;15.408;2023-07-02T10:37:35;25.60;87.70
1996;DHT22;38556;47.068;15.408;2023-07-02T10:40:04;25.60;89.30
1996;DHT22;38556;47.068;15.408;2023-07-02T10:42:43;25.60;89.50
1996;DHT22;38556;47.068;15.408;2023-07-02T10:45:10;25.80;90.00
1996;DHT22;38556;47.068;15.408;2023-07-02T10:47:39;25.80;90.30
1996;DHT22;38556;47.068;15.408;2023-07-02T10:50:14;25.80;90.10
1996;DHT22;38556;47.068;15.408;2023-07-02T10:52:42;25.80;88.80
1996;DHT22;38556;47.068;15.408;2023-07-02T10:55:09;25.80;87.20
1996;DHT22;38556;47.068;15.408;2023-07-02T10:57:38;25.80;87.10
1996;DHT22;38556;47.068;15.408;2023-07-02T11:00:06;25.80;88.20
1996;DHT22;38556;47.068;15.408;2023-07-02T11:02:34;25.70;89.30
1996;DHT22;38556;47.068;15.408;2023-07-02T11:05:02;25.40;90.20
1996;DHT22;38556;47.068;15.408;2023-07-02T11:07:30;25.50;90.00
1996;DHT22;38556;47.068;15.408;2023-07-02T11:09:57;25.60;90.50
1996;DHT22;38556;47.068;15.408;2023-07-02T11:12:31;25.70;90.30
1996;DHT22;38556;47.068;15.408;2023-07-02T11:15:09;25.70;90.00
1996;DHT22;38556;47.068;15.408;2023-07-02T11:17:36;25.70;89.80
1996;DHT22;38556;47.068;15.408;2023-07-02T11:20:05;25.60;90.40
1996;DHT22;38556;47.068;15.408;2023-07-02T11:22:32;25.70;88.30
1996;DHT22;38556;47.068;15.408;2023-07-02T11:25:09;25.80;88.90
1996;DHT22;38556;47.068;15.408;2023-07-02T11:27:37;25.80;89.00
1996;DHT22;38556;47.068;15.408;2023-07-02T11:30:05;25.80;88.30
1996;DHT22;38556;47.068;15.408;2023-07-02T11:32:47;25.90;90.30
1996;DHT22;38556;47.068;15.408;2023-07-02T11:35:16;26.10;90.20
1996;DHT22;38556;47.068;15.408;2023-07-02T11:37:44;25.90;87.60
1996;DHT22;38556;47.068;15.408;2023-07-02T11:40:12;25.90;88.60
1996;DHT22;38556;47.068;15.408;2023-07-02T11:42:40;25.90;89.60
1996;DHT22;38556;47.068;15.408;2023-07-02T11:45:09;25.80;89.70
1996;DHT22;38556;47.068;15.408;2023-07-02T11:47:37;25.80;89.60
1996;DHT22;38556;47.068;15.408;2023-07-02T11:50:06;25.80;90.20
1996;DHT22;38556;47.068;15.408;2023-07-02T11:52:34;25.80;90.30
1996;DHT22;38556;47.068;15.408;2023-07-02T11:55:01;26.00;90.30
1996;DHT22;38556;47.068;15.408;2023-07-02T11:57:29;26.20;88.70
1996;DHT22;38556;47.068;15.408;2023-07-02T11:59:56;26.30;89.00
1996;DHT22;38556;47.068;15.408;2023-07-02T12:02:24;26.40;87.90
1996;DHT22;38556;47.068;15.408;2023-07-02T12:04:52;26.40;87.80
1996;DHT22;38556;47.068;15.408;2023-07-02T12:07:21;26.60;86.80
1996;DHT22;38556;47.068;15.408;2023-07-02T12:09:49;26.70;87.60
1996;DHT22;38556;47.068;15.408;2023-07-02T12:12:17;26.60;86.20
1996;DHT22;38556;47.068;15.408;2023-07-02T12:14:44;26.60;87.30
1996;DHT22;38556;47.068;15.408;2023-07-02T12:17:11;26.40;85.80
1996;DHT22;38556;47.068;15.408;2023-07-02T12:19:39;26.40;86.80
1996;DHT22;38556;47.068;15.408;2023-07-02T12:22:08;26.50;86.40
1996;DHT22;38556;47.068;15.408;2023-07-02T12:24:35;26.50;85.40
1996;DHT22;38556;47.068;15.408;2023-07-02T12:27:03;25.80;89.60
1996;DHT22;38556;47.068;15.408;2023-07-02T12:29:30;25.50;89.60
1996;DHT22;38556;47.068;15.408;2023-07-02T12:31:58;25.40;91.30
1996;DHT22;38556;47.068;15.408;2023-07-02T12:34:25;25.10;91.40
1996;DHT22;38556;47.068;15.408;2023-07-02T12:36:53;24.70;91.80
1996;DHT22;38556;47.068;15.408;2023-07-02T12:39:22;24.80;92.30
1996;DHT22;38556;47.068;15.408;2023-07-02T12:41:50;24.40;92.80
1996;DHT22;38556;47.068;15.408;2023-07-02T12:44:17;24.30;92.70
1996;DHT22;38556;47.068;15.408;2023-07-02T12:46:45;24.40;93.40
1996;DHT22;38556;47.068;15.408;2023-07-02T12:49:12;24.30;93.60
1996;DHT22;38556;47.068;15.408;2023-07-02T12:51:40;24.40;94.20
1996;DHT22;38556;47.068;15.408;2023-07-02T12:54:07;24.00;94.80
1996;DHT22;38556;47.068;15.408;2023-07-02T12:56:36;24.00;95.10
1996;DHT22;38556;47.068;15.408;2023-07-02T12:59:04;24.00;95.00
1996;DHT22;38556;47.068;15.408;2023-07-02T13:01:32;24.10;95.20
1996;DHT22;38556;47.068;15.408;2023-07-02T13:04:01;24.10;95.70
1996;DHT22;38556;47.068;15.408;2023-07-02T13:06:31;23.80;95.20
1996;DHT22;38556;47.068;15.408;2023-07-02T13:09:06;23.80;94.70
1996;DHT22;38556;47.068;15.408;2023-07-02T13:11:37;24.10;93.90
1996;DHT22;38556;47.068;15.408;2023-07-02T13:14:06;24.20;93.80
1996;DHT22;38556;47.068;15.408;2023-07-02T13:16:36;24.40;93.00
1996;DHT22;38556;47.068;15.408;2023-07-02T13:19:05;24.50;93.20
1996;DHT22;38556;47.068;15.408;2023-07-02T13:21:34;24.70;93.40
1996;DHT22;38556;47.068;15.408;2023-07-02T13:24:03;24.90;93.20
1996;DHT22;38556;47.068;15.408;2023-07-02T13:26:33;25.40;92.30
1996;DHT22;38556;47.068;15.408;2023-07-02T13:29:03;25.40;92.40
1996;DHT22;38556;47.068;15.408;2023-07-02T13:31:33;25.50;91.70
1996;DHT22;38556;47.068;15.408;2023-07-02T13:34:01;25.60;91.80
1996;DHT22;38556;47.068;15.408;2023-07-02T13:36:30;25.70;91.30
1996;DHT22;38556;47.068;15.408;2023-07-02T13:38:59;25.60;91.70
1996;DHT22;38556;47.068;15.408;2023-07-02T13:41:30;25.70;91.40
1996;DHT22;38556;47.068;15.408;2023-07-02T13:44:02;25.80;91.20
1996;DHT22;38556;47.068;15.408;2023-07-02T13:46:31;25.90;91.30
1996;DHT22;38556;47.068;15.408;2023-07-02T13:48:59;25.90;91.50
1996;DHT22;38556;47.068;15.408;2023-07-02T13:51:28;25.90;91.50
1996;DHT22;38556;47.068;15.408;2023-07-02T13:53:58;25.90;91.60
1996;DHT22;38556;47.068;15.408;2023-07-02T13:56:26;26.00;90.60
1996;DHT22;38556;47.068;15.408;2023-07-02T13:59:04;26.10;91.20
1996;DHT22;38556;47.068;15.408;2023-07-02T14:01:33;26.20;91.10
1996;DHT22;38556;47.068;15.408;2023-07-02T14:04:03;26.30;90.90
1996;DHT22;38556;47.068;15.408;2023-07-02T14:06:32;26.30;90.80
1996;DHT22;38556;47.068;15.408;2023-07-02T14:09:02;26.40;90.80
1996;DHT22;38556;47.068;15.408;2023-07-02T14:11:30;26.50;90.90
1996;DHT22;38556;47.068;15.408;2023-07-02T14:14:00;26.50;90.90
1996;DHT22;38556;47.068;15.408;2023-07-02T14:16:30;26.50;91.00
1996;DHT22;38556;47.068;15.408;2023-07-02T14:18:59;26.50;91.40
1996;DHT22;38556;47.068;15.408;2023-07-02T14:21:28;26.60;91.70
1996;DHT22;38556;47.068;15.408;2023-07-02T14:23:58;26.60;91.10
1996;DHT22;38556;47.068;15.408;2023-07-02T14:26:26;26.50;91.00
1996;DHT22;38556;47.068;15.408;2023-07-02T14:28:57;26.60;91.30
1996;DHT22;38556;47.068;15.408;2023-07-02T14:31:26;26.60;91.90
1996;DHT22;38556;47.068;15.408;2023-07-02T14:33:57;26.60;91.10
1996;DHT22;38556;47.068;15.408;2023-07-02T14:36:25;26.50;91.10
1996;DHT22;38556;47.068;15.408;2023-07-02T14:38:54;26.40;91.00
1996;DHT22;38556;47.068;15.408;2023-07-02T14:41:23;26.40;91.10
1996;DHT22;38556;47.068;15.408;2023-07-02T14:43:51;26.50;91.20
1996;DHT22;38556;47.068;15.408;2023-07-02T14:46:21;26.50;91.50
1996;DHT22;38556;47.068;15.408;2023-07-02T14:48:49;26.60;91.70
1996;DHT22;38556;47.068;15.408;2023-07-02T14:51:18;26.40;91.50
1996;DHT22;38556;47.068;15.408;2023-07-02T14:53:46;26.40;91.70
1996;DHT22;38556;47.068;15.408;2023-07-02T14:56:13;26.40;91.60
1996;DHT22;38556;47.068;15.408;2023-07-02T14:58:41;26.40;91.50
1996;DHT22;38556;47.068;15.408;2023-07-02T15:01:08;26.40;92.20
1996;DHT22;38556;47.068;15.408;2023-07-02T15:03:36;26.20;91.60
1996;DHT22;38556;47.068;15.408;2023-07-02T15:06:08;26.20;91.50
1996;DHT22;38556;47.068;15.408;2023-07-02T15:08:38;26.20;91.90
1996;DHT22;38556;47.068;15.408;2023-07-02T15:11:05;26.20;92.40
1996;DHT22;38556;47.068;15.408;2023-07-02T15:13:33;26.20;92.10
1996;DHT22;38556;47.068;15.408;2023-07-02T15:16:01;26.20;92.40
1996;DHT22;38556;47.068;15.408;2023-07-02T15:18:29;26.20;92.60
1996;DHT22;38556;47.068;15.408;2023-07-02T15:20:57;26.30;92.60
1996;DHT22;38556;47.068;15.408;2023-07-02T15:23:26;26.40;93.00
1996;DHT22;38556;47.068;15.408;2023-07-02T15:28:25;26.40;92.70
1996;DHT22;38556;47.068;15.408;2023-07-02T15:30:54;26.40;93.10
1996;DHT22;38556;47.068;15.408;2023-07-02T15:33:22;26.40;93.30
1996;DHT22;38556;47.068;15.408;2023-07-02T15:35:51;26.40;93.40
1996;DHT22;38556;47.068;15.408;2023-07-02T15:38:18;26.40;93.50
1996;DHT22;38556;47.068;15.408;2023-07-02T15:40:47;26.30;93.60
1996;DHT22;38556;47.068;15.408;2023-07-02T15:43:17;26.30;94.30